Details From EGAA - Belfast Aldergrove
To EGPH - Edinburgh
Flight Number -
Tags Generated
Created
Modified
Stats Distance 125 nm / 232 km
Max Altitude 0 ft / 0 m
Waypoints 2
Social Downloads 0
Likes 0
Share VATSIM

Download

Looking for another format? Having issues loading an existing format? Contact us
Advertisement - Login to hide

Notes

Generated

Route

EGAA EGPH

ID Type Via Altitude Latitude Longitude Leg Dist Tot Dist Heading (true) Name
O EGAA APT - 0 ft / 0 m 54.65792˚ -6.22862˚ - 0 nm - -
O EGPH APT - 0 ft / 0 m 55.94677˚ -3.35601˚ 125 nm 125 nm 51° / 53° Edinburgh

Altitude Profile

Advertisement - Login to hide

EGAA

Details ICAO EGAA (BFS)
Name Belfast Aldergrove
Region United Kingdom
Timezone Europe/London (UTC+0.0)
Stats Elevation 268 ft / 82 m (AMSL)
Location 54.653878° -6.220006°
Runways 2
Magnetic Variation 3.242° W

METAR

EGAA 112220Z 29005KT 9999 MIFG NSC M02/M03 Q1001

Decode

TAF

TAF TAF EGAA 111701Z 1118/1218 30005KT 9999 FEW007 SCT025 PROB30 TEMPO 1118/1120 6000 FZRA SHRA BKN007 TEMPO 1120/1211 BKN004 PROB30 1121/1210 0200 FZFG BKN000 BECMG 1210/1213 17011KT TEMPO 1213/1218 4000 RADZ BKN006

Decode

Departure Runways

ID Width Length Bearing (true) Bearing (mag) Surface Threshold Offset Overrun Length
07 148 ft / 45 m 9,095 ft / 2,772 m 65.01° 68.25° Asphalt 0 ft / 0 m 0 ft / 0 m
17 148 ft / 45 m 5,896 ft / 1,797 m 161.98° 165.22° Asphalt 525 ft / 160 m 0 ft / 0 m
25 148 ft / 45 m 9,095 ft / 2,772 m 245.05° 248.29° Asphalt 0 ft / 0 m 0 ft / 0 m
35 148 ft / 45 m 5,896 ft / 1,797 m 341.99° 345.23° Asphalt 502 ft / 153 m 0 ft / 0 m

EGPH

Details ICAO EGPH (EDI)
Name Edinburgh
Region United Kingdom
Timezone Europe/London (UTC+0.0)
Stats Elevation 135 ft / 41 m (AMSL)
Location 55.948685° -3.359718°
Runways 2
Magnetic Variation 2.300° W

METAR

EGPH 112220Z VRB03KT 9999 SCT037 02/M01 Q0999

Decode

TAF

TAF EGPH 111703Z 1118/1218 28005KT 9999 SCT040 PROB40 TEMPO 1216/1218 -RA BKN014

Decode

Destination Runways

ID Width Length Bearing (true) Bearing (mag) Surface Threshold Offset Overrun Length
06 144 ft / 44 m 8,366 ft / 2,550 m 58.80° 61.10° Asphalt 705 ft / 215 m 200 ft / 61 m
12 151 ft / 46 m 5,878 ft / 1,792 m 118.67° 120.97° Asphalt 0 ft / 0 m 0 ft / 0 m
24 144 ft / 44 m 8,366 ft / 2,550 m 238.83° 241.13° Asphalt 679 ft / 207 m 207 ft / 63 m
30 151 ft / 46 m 5,878 ft / 1,792 m 298.69° 300.99° Asphalt 194 ft / 59 m 253 ft / 77 m

Approach Navaids

Runway Type Ident Frequency Range Bearing (true) Bearing (mag) Slope Elevation
06 Localiser IVG 108.90 MHz 18 nm / 33 km 58.83° 61.13° - 110 ft / 34 m (AMSL)
06 Glidescope IVG 108.90 MHz 10 nm / 19 km 58.81° 61.11° 3.00° 135 ft / 41 m (AMSL)
06 DME IVG 108.90 MHz 18 nm / 33 km - - - 123 ft / 37 m (AMSL)
24 Localiser ITH 108.90 MHz 18 nm / 33 km 238.79° 241.09° - 110 ft / 34 m (AMSL)
24 Glidescope ITH 108.90 MHz 10 nm / 19 km 238.81° 241.11° 3.00° 135 ft / 41 m (AMSL)
24 DME ITH 108.90 MHz 18 nm / 33 km - - - 123 ft / 37 m (AMSL)

Popular Alternatives